Time;durP1;ratioP1;P1;durP2;ratioP2;P2;SDS_P1;SDS_P2;PMS_P1;PMS_P2;Temp;Humidity;BMP_temperature;BMP_pressure;BME280_temperature;BME280_humidity;BME280_pressure;Samples;Min_cycle;Max_cycle;Signal;HPM_P1;HPM_P2
2023/12/22 00:01:20;;;;;;;31.33;13.73;;;0.40;99.90;;;;;;4194743;28;20278;-59
2023/12/22 00:03:21;;;;;;;31.63;14.50;;;0.40;99.90;;;;;;4194391;28;20285;-58
2023/12/22 00:05:22;;;;;;;30.93;14.10;;;0.40;99.90;;;;;;4194429;28;21072;-60
2023/12/22 00:07:24;;;;;;;30.13;13.87;;;0.40;99.90;;;;;;4194444;28;20261;-58
2023/12/22 00:09:25;;;;;;;29.33;14.00;;;0.40;99.90;;;;;;4194896;28;20607;-59
2023/12/22 00:11:26;;;;;;;32.27;14.47;;;0.40;99.90;;;;;;4194798;28;20265;-58
2023/12/22 00:13:27;;;;;;;34.10;14.60;;;0.30;99.90;;;;;;4195142;28;20274;-58
2023/12/22 00:15:29;;;;;;;28.03;13.00;;;0.40;99.90;;;;;;4194720;28;20311;-61
2023/12/22 00:17:30;;;;;;;30.47;13.37;;;0.40;99.90;;;;;;4195261;28;20262;-59
2023/12/22 00:19:31;;;;;;;29.83;12.90;;;0.40;99.90;;;;;;4194154;28;20269;-59
2023/12/22 00:21:32;;;;;;;31.07;15.67;;;0.40;99.90;;;;;;4194010;28;20369;-58
2023/12/22 00:23:35;;;;;;;29.03;14.37;;;0.50;99.90;;;;;;4194174;28;20277;-60
2023/12/22 00:25:36;;;;;;;28.30;14.33;;;0.50;99.90;;;;;;4195226;28;20269;-60
2023/12/22 00:27:38;;;;;;;30.47;13.60;;;0.50;99.90;;;;;;4194197;28;20277;-59
2023/12/22 00:29:39;;;;;;;29.30;13.80;;;0.50;99.90;;;;;;4194253;28;20281;-59
2023/12/22 00:31:40;;;;;;;30.80;15.03;;;0.50;99.90;;;;;;4194760;28;20311;-59
2023/12/22 00:33:41;;;;;;;31.13;14.63;;;0.50;99.90;;;;;;4193857;28;20328;-60
2023/12/22 00:35:42;;;;;;;32.57;15.13;;;0.60;99.90;;;;;;4193130;28;20331;-60
2023/12/22 00:37:44;;;;;;;32.00;15.23;;;0.60;99.90;;;;;;4195002;28;20269;-58
2023/12/22 00:39:45;;;;;;;26.67;13.90;;;0.60;99.90;;;;;;4192859;28;20334;-59
2023/12/22 00:41:46;;;;;;;36.10;14.27;;;0.60;99.90;;;;;;4194211;28;20300;-59
2023/12/22 00:43:47;;;;;;;32.47;14.63;;;0.60;99.90;;;;;;4193867;28;20815;-59
2023/12/22 00:45:48;;;;;;;28.67;13.80;;;0.60;99.90;;;;;;4194544;28;20296;-58
2023/12/22 00:47:50;;;;;;;29.53;13.30;;;0.50;99.90;;;;;;4193904;28;20784;-59
2023/12/22 00:49:51;;;;;;;28.13;14.70;;;0.50;99.90;;;;;;4194641;28;20802;-59
2023/12/22 00:51:52;;;;;;;29.20;14.70;;;0.50;99.90;;;;;;4193969;28;20262;-60
2023/12/22 00:53:53;;;;;;;29.20;13.87;;;0.50;99.90;;;;;;4193821;28;20297;-61
2023/12/22 00:55:54;;;;;;;27.10;13.77;;;0.50;99.90;;;;;;4194905;28;20257;-55
2023/12/22 00:57:55;;;;;;;29.23;13.90;;;0.50;99.90;;;;;;4194195;28;20327;-60
2023/12/22 00:59:57;;;;;;;30.50;14.60;;;0.40;99.90;;;;;;4193430;28;20323;-59
2023/12/22 01:01:58;;;;;;;26.30;13.60;;;0.40;99.90;;;;;;4194199;28;20273;-60
2023/12/22 01:03:59;;;;;;;27.40;14.30;;;0.40;99.90;;;;;;4193224;28;20273;-57
2023/12/22 01:06:00;;;;;;;29.90;13.90;;;0.40;99.90;;;;;;4193483;28;20319;-60
2023/12/22 01:08:01;;;;;;;30.17;13.43;;;0.40;99.90;;;;;;4194006;28;20334;-59
2023/12/22 01:10:03;;;;;;;28.67;13.17;;;0.40;99.90;;;;;;4192747;28;20277;-60
2023/12/22 01:12:06;;;;;;;28.60;13.13;;;0.50;99.90;;;;;;4193430;28;20319;-60
2023/12/22 01:14:07;;;;;;;29.00;13.03;;;0.40;99.90;;;;;;4194082;28;20309;-59
2023/12/22 01:16:09;;;;;;;30.43;14.57;;;0.40;99.90;;;;;;4193281;28;20806;-58
2023/12/22 01:18:11;;;;;;;28.83;14.07;;;0.40;99.90;;;;;;4193495;28;20768;-60
2023/12/22 01:20:12;;;;;;;28.03;13.20;;;0.40;99.90;;;;;;4192778;28;20335;-61
2023/12/22 01:22:14;;;;;;;24.37;13.07;;;0.40;99.90;;;;;;4193641;28;20638;-59
2023/12/22 01:24:15;;;;;;;29.20;13.63;;;0.50;99.90;;;;;;4193198;28;20347;-60
2023/12/22 01:26:17;;;;;;;28.47;13.03;;;0.40;99.90;;;;;;4192678;28;20316;-58
2023/12/22 01:28:18;;;;;;;27.77;12.20;;;0.40;99.90;;;;;;4193625;28;20266;-59
2023/12/22 01:30:19;;;;;;;30.80;14.80;;;0.40;99.90;;;;;;4193282;28;20729;-59
2023/12/22 01:32:20;;;;;;;32.60;14.83;;;0.40;99.90;;;;;;4193660;28;20257;-58
2023/12/22 01:34:21;;;;;;;30.50;13.07;;;0.50;99.90;;;;;;4193036;28;20289;-61
2023/12/22 01:36:23;;;;;;;28.13;13.77;;;0.40;99.90;;;;;;4191959;28;20265;-61
2023/12/22 01:38:24;;;;;;;30.37;14.17;;;0.40;99.90;;;;;;4177434;28;20793;-60
2023/12/22 01:40:25;;;;;;;30.10;13.57;;;0.40;99.90;;;;;;4180462;28;20331;-60
2023/12/22 01:42:26;;;;;;;29.70;13.80;;;0.40;99.90;;;;;;4193351;28;20303;-60
2023/12/22 01:44:27;;;;;;;27.90;13.30;;;0.40;99.90;;;;;;4193606;28;20327;-59
2023/12/22 01:46:29;;;;;;;28.80;14.03;;;0.50;99.90;;;;;;4193100;28;20266;-58
2023/12/22 01:48:31;;;;;;;28.27;13.87;;;0.50;99.90;;;;;;4193352;28;20738;-61
2023/12/22 01:50:32;;;;;;;28.83;13.23;;;0.50;99.90;;;;;;4192992;28;20303;-60
2023/12/22 01:52:33;;;;;;;24.70;12.80;;;0.50;99.90;;;;;;4193666;28;20303;-59
2023/12/22 01:54:35;;;;;;;26.70;12.73;;;0.50;99.90;;;;;;4193504;28;20277;-60
2023/12/22 01:56:36;;;;;;;26.57;12.40;;;0.50;99.90;;;;;;4193991;28;20375;-61
2023/12/22 01:58:38;;;;;;;29.87;13.00;;;0.50;99.90;;;;;;4193224;28;20287;-58
2023/12/22 02:00:40;;;;;;;22.93;12.17;;;0.60;99.90;;;;;;4193398;28;20738;-60
2023/12/22 02:02:44;;;;;;;29.80;14.60;;;0.60;99.90;;;;;;4192813;28;20285;-61
2023/12/22 02:04:47;;;;;;;26.60;12.43;;;0.60;99.90;;;;;;4192751;28;20277;-60
2023/12/22 02:06:48;;;;;;;24.20;12.37;;;0.60;99.90;;;;;;4192499;28;20271;-60
2023/12/22 02:08:50;;;;;;;23.77;12.10;;;0.60;99.90;;;;;;4192559;28;20836;-59
2023/12/22 02:10:51;;;;;;;25.37;12.40;;;0.60;99.90;;;;;;4193119;28;20273;-60
2023/12/22 02:12:52;;;;;;;23.67;12.90;;;0.60;99.90;;;;;;4192642;28;20323;-60
2023/12/22 02:14:54;;;;;;;24.67;12.33;;;0.60;99.90;;;;;;4192968;28;20360;-60
2023/12/22 02:17:21;;;;;;;26.20;12.87;;;0.60;99.90;;;;;;4191569;28;20289;-60
2023/12/22 02:19:53;;;;;;;23.10;12.30;;;0.60;99.90;;;;;;4191790;28;20354;-60
2023/12/22 02:22:01;;;;;;;25.87;12.07;;;0.50;99.90;;;;;;4175968;28;20278;-60
2023/12/22 02:24:03;;;;;;;36.77;15.87;;;0.50;99.90;;;;;;4192634;28;20303;-61
2023/12/22 02:26:27;;;;;;;32.40;16.63;;;0.40;99.90;;;;;;4192856;28;20311;-60
2023/12/22 02:28:29;;;;;;;30.97;15.13;;;0.40;99.90;;;;;;4174682;28;20339;-60
2023/12/22 02:30:45;;;;;;;37.43;17.10;;;0.40;99.90;;;;;;4192340;28;20664;-59
2023/12/22 02:32:55;;;;;;;30.43;14.20;;;0.40;99.90;;;;;;4192022;28;20663;-57
2023/12/22 02:34:57;;;;;;;29.77;13.63;;;0.50;99.90;;;;;;4192143;28;20318;-60
2023/12/22 02:36:59;;;;;;;28.80;14.13;;;0.50;99.90;;;;;;4191738;28;20277;-59
2023/12/22 02:39:01;;;;;;;29.83;14.80;;;0.50;99.90;;;;;;4192362;28;20281;-59
2023/12/22 02:41:03;;;;;;;29.20;14.30;;;0.50;99.90;;;;;;4191889;28;20281;-60
2023/12/22 02:43:06;;;;;;;29.07;14.13;;;0.50;99.90;;;;;;4192645;28;20347;-60
2023/12/22 02:45:16;;;;;;;27.90;12.83;;;0.60;99.90;;;;;;4192691;28;20303;-60
2023/12/22 02:47:17;;;;;;;24.83;13.02;;;0.60;99.90;;;;;;4176238;28;20653;-57
2023/12/22 02:49:19;;;;;;;32.67;14.33;;;0.60;99.90;;;;;;4175702;28;20049;-57
2023/12/22 02:51:20;;;;;;;25.03;13.17;;;0.60;99.90;;;;;;4175342;28;20320;-59
2023/12/22 02:53:21;;;;;;;24.10;12.83;;;0.60;99.90;;;;;;4190528;28;20323;-60
2023/12/22 02:55:22;;;;;;;24.20;13.47;;;0.60;99.90;;;;;;4192008;28;20266;-60
2023/12/22 02:57:23;;;;;;;25.30;13.30;;;0.60;99.90;;;;;;4192663;28;20323;-60
2023/12/22 02:59:25;;;;;;;26.27;13.13;;;0.70;99.90;;;;;;4191900;28;20274;-59
2023/12/22 03:01:26;;;;;;;25.53;12.80;;;0.60;99.90;;;;;;4191563;28;20273;-61
2023/12/22 03:03:29;;;;;;;28.13;13.83;;;0.60;99.90;;;;;;4186466;28;20841;-60
2023/12/22 03:05:30;;;;;;;29.23;14.73;;;0.70;99.90;;;;;;4181667;28;20307;-58
2023/12/22 03:07:31;;;;;;;31.17;14.70;;;0.60;99.90;;;;;;4191420;28;20285;-57
2023/12/22 03:09:34;;;;;;;23.93;12.53;;;0.60;99.90;;;;;;4192448;28;20331;-60
2023/12/22 03:11:35;;;;;;;29.30;15.13;;;0.60;99.90;;;;;;4191953;28;20355;-61
2023/12/22 03:13:36;;;;;;;36.03;18.27;;;0.60;99.90;;;;;;4173714;28;20375;-60
2023/12/22 03:15:37;;;;;;;45.53;20.50;;;0.50;99.90;;;;;;4192273;28;20262;-60
2023/12/22 03:17:38;;;;;;;42.60;19.77;;;0.50;99.90;;;;;;4191863;28;20330;-61
2023/12/22 03:19:40;;;;;;;38.67;20.57;;;0.50;99.90;;;;;;4191547;28;20327;-59
2023/12/22 03:21:41;;;;;;;45.80;21.70;;;0.40;99.90;;;;;;4187452;28;20684;-61
2023/12/22 03:23:42;;;;;;;40.07;20.73;;;0.50;99.90;;;;;;4192304;28;20269;-61
2023/12/22 03:25:43;;;;;;;43.77;21.13;;;0.50;99.90;;;;;;4192356;28;20269;-61
2023/12/22 03:27:44;;;;;;;44.63;20.23;;;0.50;99.90;;;;;;4192600;28;20374;-59
2023/12/22 03:29:45;;;;;;;44.17;21.50;;;0.50;99.90;;;;;;4191641;28;20277;-60
2023/12/22 03:31:47;;;;;;;41.13;20.33;;;0.50;99.90;;;;;;4191219;28;20351;-61
2023/12/22 03:33:48;;;;;;;38.90;19.53;;;0.50;99.90;;;;;;4191672;28;20293;-59
2023/12/22 03:35:50;;;;;;;47.37;21.13;;;0.50;99.90;;;;;;4192108;28;20261;-61
2023/12/22 03:37:51;;;;;;;36.53;20.37;;;0.50;99.90;;;;;;4191521;28;20649;-60
2023/12/22 03:39:52;;;;;;;39.73;19.93;;;0.50;99.90;;;;;;4192351;28;20717;-61
2023/12/22 03:41:53;;;;;;;39.13;18.57;;;0.60;99.90;;;;;;4191975;28;20668;-60
2023/12/22 03:43:55;;;;;;;39.83;19.33;;;0.60;99.90;;;;;;4192350;28;20757;-60
2023/12/22 03:45:56;;;;;;;41.10;20.03;;;0.60;99.90;;;;;;4192278;28;20273;-60
2023/12/22 03:47:58;;;;;;;36.00;19.60;;;0.60;99.90;;;;;;4191460;28;20797;-60
2023/12/22 03:49:59;;;;;;;39.17;17.83;;;0.70;99.90;;;;;;4192341;28;20819;-61
2023/12/22 03:52:00;;;;;;;35.47;17.77;;;0.70;99.90;;;;;;4191628;28;20846;-61
2023/12/22 03:54:02;;;;;;;34.07;18.03;;;0.80;99.90;;;;;;4191732;28;20350;-61
2023/12/22 03:56:03;;;;;;;35.30;17.63;;;0.70;99.90;;;;;;4191986;28;20844;-57
2023/12/22 03:58:07;;;;;;;35.13;16.67;;;0.80;99.90;;;;;;4191408;28;20282;-60
2023/12/22 04:00:08;;;;;;;33.77;16.60;;;0.80;99.90;;;;;;4191809;28;20334;-59
2023/12/22 04:02:09;;;;;;;31.00;16.47;;;0.80;99.90;;;;;;4191787;28;20761;-60
2023/12/22 04:04:11;;;;;;;34.53;17.33;;;0.80;99.90;;;;;;4191859;28;20757;-61
2023/12/22 04:06:12;;;;;;;39.03;18.63;;;0.90;99.90;;;;;;4190808;28;20273;-61
2023/12/22 04:08:13;;;;;;;35.53;19.70;;;0.90;99.90;;;;;;4191879;28;20318;-61
2023/12/22 04:10:17;;;;;;;39.97;19.07;;;0.80;99.90;;;;;;4191360;28;20777;-60
2023/12/22 04:12:18;;;;;;;36.83;19.53;;;0.90;99.90;;;;;;4191681;28;20262;-61
2023/12/22 04:14:19;;;;;;;34.77;18.57;;;0.80;99.90;;;;;;4194255;28;20347;-60
2023/12/22 04:16:21;;;;;;;41.70;19.10;;;0.90;99.90;;;;;;4194916;28;20679;-61
2023/12/22 04:18:22;;;;;;;34.87;18.20;;;0.90;99.90;;;;;;4176526;28;20266;-62
2023/12/22 04:20:24;;;;;;;34.13;15.93;;;0.90;99.90;;;;;;4193195;28;20273;-59
2023/12/22 04:22:25;;;;;;;31.37;15.33;;;0.90;99.90;;;;;;4194158;28;20680;-60
2023/12/22 04:24:26;;;;;;;29.07;15.33;;;1.00;99.90;;;;;;4194090;28;20703;-62
2023/12/22 04:26:27;;;;;;;31.13;15.07;;;1.00;99.90;;;;;;4195202;28;20262;-61
2023/12/22 04:28:28;;;;;;;26.60;14.50;;;1.00;99.90;;;;;;4194527;28;20359;-61
2023/12/22 04:30:29;;;;;;;28.50;13.83;;;0.90;99.90;;;;;;4193936;28;20755;-62
2023/12/22 04:32:30;;;;;;;30.97;15.53;;;0.90;99.90;;;;;;4193890;28;20331;-61
2023/12/22 04:34:32;;;;;;;31.40;16.20;;;0.80;99.90;;;;;;4194344;28;20289;-60
2023/12/22 04:36:33;;;;;;;32.47;15.30;;;0.90;99.90;;;;;;4194659;28;20307;-59
2023/12/22 04:38:34;;;;;;;32.07;16.20;;;0.80;99.90;;;;;;4194583;28;20266;-61
2023/12/22 04:40:35;;;;;;;31.50;14.90;;;0.80;99.90;;;;;;4175843;28;20286;-59
2023/12/22 04:42:37;;;;;;;29.67;14.37;;;0.70;99.90;;;;;;4193965;28;20273;-61
2023/12/22 04:44:38;;;;;;;26.93;13.73;;;0.60;99.90;;;;;;4193643;28;20281;-61
2023/12/22 04:46:39;;;;;;;26.23;14.10;;;0.70;99.90;;;;;;4193970;28;20288;-59
2023/12/22 04:48:40;;;;;;;29.93;13.93;;;0.70;99.90;;;;;;4194742;28;20322;-61
2023/12/22 04:50:41;;;;;;;26.20;13.63;;;0.80;99.90;;;;;;4194444;28;20749;-61
2023/12/22 04:52:43;;;;;;;26.77;13.73;;;0.90;99.90;;;;;;4193920;28;20273;-62
2023/12/22 04:54:44;;;;;;;23.27;12.73;;;1.00;99.90;;;;;;4193733;28;20289;-61
2023/12/22 04:56:45;;;;;;;33.40;14.07;;;1.10;99.90;;;;;;4194658;28;20277;-62
2023/12/22 04:58:46;;;;;;;27.90;14.60;;;1.10;99.90;;;;;;4194454;28;20277;-61
2023/12/22 05:00:48;;;;;;;32.90;16.03;;;1.20;99.90;;;;;;4193880;28;20281;-62
2023/12/22 05:02:49;;;;;;;29.87;16.13;;;1.20;99.90;;;;;;4194133;28;20358;-60
2023/12/22 05:04:50;;;;;;;32.50;16.37;;;1.20;99.90;;;;;;4193616;28;20315;-61
2023/12/22 05:06:51;;;;;;;36.63;18.27;;;1.30;99.90;;;;;;4193444;28;20257;-62
2023/12/22 05:08:53;;;;;;;33.90;17.90;;;1.30;99.90;;;;;;4193453;28;20319;-61
2023/12/22 05:10:54;;;;;;;40.57;18.80;;;1.20;99.90;;;;;;4194331;28;20708;-61
2023/12/22 05:12:55;;;;;;;33.43;16.60;;;1.10;99.90;;;;;;4193457;28;20269;-57
2023/12/22 05:14:56;;;;;;;31.83;16.97;;;1.10;99.90;;;;;;4192343;28;20838;-58
2023/12/22 05:16:57;;;;;;;31.97;15.40;;;1.10;99.90;;;;;;4190871;28;20277;-60
2023/12/22 05:18:59;;;;;;;37.07;18.13;;;1.10;99.90;;;;;;4185715;28;20303;-59
2023/12/22 05:21:00;;;;;;;40.00;19.83;;;1.10;99.90;;;;;;4187330;28;20329;-59
2023/12/22 05:23:01;;;;;;;43.23;22.60;;;1.10;99.90;;;;;;4187086;28;20771;-59
2023/12/22 05:25:03;;;;;;;44.67;21.43;;;1.00;99.90;;;;;;4186746;28;20339;-60
2023/12/22 05:27:04;;;;;;;39.47;19.80;;;1.00;99.90;;;;;;4188274;28;20371;-60
2023/12/22 05:29:08;;;;;;;52.50;21.03;;;0.90;99.90;;;;;;4187699;28;20772;-60
2023/12/22 05:31:09;;;;;;;41.27;20.53;;;0.90;99.90;;;;;;4187837;28;20288;-61
2023/12/22 05:33:10;;;;;;;37.07;19.57;;;0.90;99.90;;;;;;4188303;28;20665;-61
2023/12/22 05:35:12;;;;;;;34.17;17.93;;;1.00;99.90;;;;;;4193736;28;20293;-58
2023/12/22 05:37:13;;;;;;;36.77;18.93;;;1.00;99.90;;;;;;4192510;28;20757;-59
2023/12/22 05:39:14;;;;;;;35.43;17.53;;;1.00;99.90;;;;;;4193438;28;20269;-60
2023/12/22 05:41:15;;;;;;;40.77;20.13;;;1.00;99.90;;;;;;4193844;28;20323;-61
2023/12/22 05:43:16;;;;;;;44.47;19.87;;;1.10;99.90;;;;;;4193502;28;20270;-60
2023/12/22 05:45:18;;;;;;;41.97;21.90;;;1.10;99.90;;;;;;4192968;28;20342;-60
2023/12/22 05:47:19;;;;;;;36.80;16.70;;;1.10;99.90;;;;;;4193059;28;20277;-61
2023/12/22 05:49:20;;;;;;;31.00;15.33;;;1.10;99.90;;;;;;4192727;28;20273;-61
2023/12/22 05:51:21;;;;;;;23.43;12.27;;;1.20;99.90;;;;;;4193217;28;20354;-60
2023/12/22 05:53:23;;;;;;;28.13;14.37;;;1.40;99.90;;;;;;4192668;28;20315;-59
2023/12/22 05:55:24;;;;;;;34.83;18.53;;;1.40;99.90;;;;;;4192596;28;20803;-60
2023/12/22 05:57:26;;;;;;;26.90;13.97;;;1.50;99.90;;;;;;4193277;28;20311;-62
2023/12/22 05:59:32;;;;;;;28.53;14.13;;;1.70;99.90;;;;;;4193411;28;20836;-61
2023/12/22 06:01:33;;;;;;;24.37;12.80;;;1.90;99.90;;;;;;4192343;28;20270;-61
2023/12/22 06:03:35;;;;;;;16.83;9.73;;;2.00;99.90;;;;;;4192118;28;20278;-62
2023/12/22 06:05:36;;;;;;;22.77;10.50;;;2.20;99.90;;;;;;4174451;28;20266;-56
2023/12/22 06:07:38;;;;;;;24.80;9.13;;;2.30;99.90;;;;;;4191692;28;20422;-60
2023/12/22 06:09:39;;;;;;;19.80;10.73;;;2.40;99.90;;;;;;4192114;28;20274;-60
2023/12/22 06:11:40;;;;;;;19.17;8.37;;;2.40;99.90;;;;;;4192160;28;20261;-59
2023/12/22 06:13:41;;;;;;;11.23;6.60;;;2.40;99.90;;;;;;4192820;28;21172;-58
2023/12/22 06:15:43;;;;;;;12.37;7.00;;;2.50;99.90;;;;;;4192448;28;20303;-60
2023/12/22 06:17:44;;;;;;;8.50;5.23;;;2.60;99.90;;;;;;4192221;28;20258;-61
2023/12/22 06:19:45;;;;;;;11.70;6.37;;;2.70;99.90;;;;;;4192124;28;20278;-61
2023/12/22 06:21:46;;;;;;;12.13;5.90;;;2.70;99.90;;;;;;4192769;28;20346;-61
2023/12/22 06:23:47;;;;;;;6.03;3.83;;;2.80;99.90;;;;;;4192301;28;20721;-60
2023/12/22 06:25:48;;;;;;;4.47;2.73;;;2.80;99.90;;;;;;4191837;28;20327;-61
2023/12/22 06:27:50;;;;;;;11.50;6.43;;;2.90;99.90;;;;;;4174297;28;20369;-60
2023/12/22 06:29:51;;;;;;;17.27;10.60;;;2.90;99.90;;;;;;4192981;28;20275;-60
2023/12/22 06:31:52;;;;;;;13.80;8.07;;;2.90;99.90;;;;;;4191269;28;20840;-61
2023/12/22 06:33:53;;;;;;;18.47;10.67;;;2.80;99.90;;;;;;4190538;28;20338;-59
2023/12/22 06:35:54;;;;;;;23.00;12.30;;;2.80;99.90;;;;;;4191510;28;20634;-61
2023/12/22 06:37:56;;;;;;;16.40;9.43;;;2.80;99.90;;;;;;4172432;28;20270;-60
2023/12/22 06:39:58;;;;;;;13.70;7.53;;;2.80;99.90;;;;;;4191256;28;20753;-61
2023/12/22 06:41:59;;;;;;;6.13;3.03;;;2.80;99.90;;;;;;4191233;28;20265;-59
2023/12/22 06:44:00;;;;;;;5.67;2.30;;;3.20;99.90;;;;;;4191675;28;20338;-60
2023/12/22 06:46:02;;;;;;;4.00;2.37;;;3.60;99.90;;;;;;4192709;28;20273;-63
2023/12/22 06:48:03;;;;;;;2.27;1.70;;;4.00;99.90;;;;;;4190800;28;20262;-60
2023/12/22 06:50:05;;;;;;;3.27;2.03;;;4.30;99.90;;;;;;4191842;28;20307;-61
2023/12/22 06:52:06;;;;;;;3.20;1.57;;;4.50;99.90;;;;;;4192667;28;20270;-61
2023/12/22 06:54:07;;;;;;;3.87;2.17;;;4.70;99.90;;;;;;4191935;28;20284;-60
2023/12/22 06:56:23;;;;;;;2.77;2.00;;;4.80;99.90;;;;;;4192684;28;20712;-60
2023/12/22 06:58:25;;;;;;;4.73;1.90;;;4.90;99.90;;;;;;4192735;28;20032;-59
2023/12/22 07:00:26;;;;;;;4.87;2.43;;;4.90;99.90;;;;;;4191530;28;20044;-61
2023/12/22 07:02:28;;;;;;;2.97;1.87;;;5.00;99.90;;;;;;4192268;28;20392;-61
2023/12/22 07:04:29;;;;;;;2.50;1.70;;;5.00;99.90;;;;;;4192308;28;20074;-60
2023/12/22 07:06:32;;;;;;;3.10;1.70;;;5.10;99.90;;;;;;4192521;28;20036;-60
2023/12/22 07:08:33;;;;;;;5.40;3.03;;;5.10;99.90;;;;;;4191695;28;20074;-61
2023/12/22 07:10:34;;;;;;;2.90;1.80;;;5.10;99.90;;;;;;4191932;28;20017;-61
2023/12/22 07:12:36;;;;;;;3.30;2.03;;;5.10;99.90;;;;;;4192266;28;20028;-61
2023/12/22 07:14:37;;;;;;;4.30;2.43;;;5.10;99.90;;;;;;4192126;28;20497;-58
2023/12/22 07:16:38;;;;;;;3.87;2.33;;;5.10;99.90;;;;;;4191638;28;20447;-60
2023/12/22 07:18:39;;;;;;;3.60;2.27;;;5.10;99.90;;;;;;4191771;28;20040;-59
2023/12/22 07:20:40;;;;;;;3.17;1.90;;;5.10;99.90;;;;;;4191890;28;20033;-60
2023/12/22 07:22:45;;;;;;;7.97;3.83;;;5.10;99.90;;;;;;4191003;28;20109;-58
2023/12/22 07:24:46;;;;;;;6.67;3.37;;;5.10;99.90;;;;;;4191618;28;20094;-57
2023/12/22 07:26:47;;;;;;;6.13;2.50;;;5.10;99.90;;;;;;4191786;28;20045;-61
2023/12/22 07:28:48;;;;;;;2.23;1.83;;;5.00;99.90;;;;;;4191630;28;20094;-59
2023/12/22 07:30:50;;;;;;;2.03;1.50;;;5.00;99.90;;;;;;4175009;28;20045;-61
2023/12/22 07:32:53;;;;;;;5.13;1.90;;;5.00;99.90;;;;;;4189993;28;20086;-61
2023/12/22 07:34:55;;;;;;;2.37;1.43;;;5.00;99.90;;;;;;4190651;28;20079;-57
2023/12/22 07:36:56;;;;;;;2.90;1.80;;;5.10;99.90;;;;;;4191782;28;20036;-62
2023/12/22 07:38:59;;;;;;;1.60;1.07;;;5.10;99.90;;;;;;4191464;28;20041;-58
2023/12/22 07:41:00;;;;;;;4.20;1.60;;;5.00;99.90;;;;;;4191501;28;20032;-62
2023/12/22 07:43:01;;;;;;;3.27;1.23;;;5.00;99.90;;;;;;4191158;28;20040;-60
2023/12/22 07:45:03;;;;;;;3.10;1.40;;;5.00;99.90;;;;;;4191502;28;20114;-61
2023/12/22 07:47:04;;;;;;;3.03;1.27;;;5.10;99.90;;;;;;4191111;28;20049;-61
2023/12/22 07:49:06;;;;;;;2.90;1.17;;;5.10;99.90;;;;;;4193775;28;20408;-60
2023/12/22 07:51:07;;;;;;;2.87;1.10;;;5.10;99.90;;;;;;4195395;28;20094;-60
2023/12/22 07:53:08;;;;;;;2.47;1.50;;;5.10;99.90;;;;;;4185612;28;20139;-60
2023/12/22 07:55:10;;;;;;;1.30;0.70;;;5.10;99.90;;;;;;4193715;28;20558;-60
2023/12/22 07:57:11;;;;;;;5.90;1.53;;;5.10;99.90;;;;;;4194951;28;20048;-60
2023/12/22 07:59:12;;;;;;;3.80;1.73;;;5.20;99.90;;;;;;4193375;28;20162;-59
2023/12/22 08:01:15;;;;;;;2.37;1.50;;;5.20;99.90;;;;;;4195150;28;20032;-58
2023/12/22 08:03:16;;;;;;;3.27;1.30;;;5.30;99.90;;;;;;4193816;28;20106;-61
2023/12/22 08:05:18;;;;;;;3.20;1.40;;;5.30;99.90;;;;;;4194407;28;20518;-59
2023/12/22 08:07:19;;;;;;;8.27;1.77;;;5.30;99.90;;;;;;4186295;28;20514;-60
2023/12/22 08:09:22;;;;;;;2.03;0.97;;;5.30;99.90;;;;;;4194084;28;20143;-59
2023/12/22 08:11:25;;;;;;;2.87;1.40;;;5.30;99.90;;;;;;4193749;28;20041;-59
2023/12/22 08:13:27;;;;;;;3.43;1.40;;;5.30;99.90;;;;;;4194407;28;20447;-61
2023/12/22 08:15:28;;;;;;;2.20;1.07;;;5.30;99.90;;;;;;4194569;28;20078;-59
2023/12/22 08:17:29;;;;;;;1.77;1.07;;;5.30;99.90;;;;;;4193685;28;20102;-61
2023/12/22 08:19:30;;;;;;;4.97;1.50;;;5.30;99.90;;;;;;4194571;28;20036;-61
2023/12/22 08:21:32;;;;;;;2.60;0.87;;;5.30;99.90;;;;;;4194302;28;20086;-60
2023/12/22 08:23:33;;;;;;;2.03;0.70;;;5.30;99.90;;;;;;4193620;28;20110;-60
2023/12/22 08:25:34;;;;;;;3.20;1.20;;;5.20;99.90;;;;;;4194473;28;20459;-62
2023/12/22 08:27:35;;;;;;;4.00;2.03;;;5.20;99.90;;;;;;4194608;28;20040;-61
2023/12/22 08:29:36;;;;;;;6.13;2.30;;;5.20;99.90;;;;;;4193834;28;20040;-63
2023/12/22 08:31:37;;;;;;;5.57;1.80;;;5.10;99.90;;;;;;4195023;28;20028;-62
2023/12/22 08:33:40;;;;;;;3.77;2.47;;;5.20;99.90;;;;;;4194406;28;20020;-61
2023/12/22 08:35:42;;;;;;;3.40;1.93;;;5.20;99.90;;;;;;4193278;28;20419;-60
2023/12/22 08:37:43;;;;;;;3.80;2.13;;;5.20;99.90;;;;;;4194700;28;20036;-60
2023/12/22 08:39:44;;;;;;;4.93;2.33;;;5.20;99.90;;;;;;4193221;28;20052;-61
2023/12/22 08:41:46;;;;;;;6.77;3.67;;;5.10;99.90;;;;;;4193215;28;20040;-60
2023/12/22 08:43:47;;;;;;;18.40;7.13;;;5.20;99.90;;;;;;4193671;28;20040;-60
2023/12/22 08:45:49;;;;;;;12.00;6.00;;;5.40;99.90;;;;;;4193857;28;20044;-60
2023/12/22 08:47:50;;;;;;;14.80;7.73;;;5.50;99.90;;;;;;4194737;28;20058;-60
2023/12/22 08:49:51;;;;;;;5.97;2.87;;;5.80;99.90;;;;;;4193613;28;20481;-60
2023/12/22 08:51:52;;;;;;;4.13;1.60;;;6.00;99.90;;;;;;4193528;28;20045;-61
2023/12/22 08:53:54;;;;;;;6.50;3.00;;;6.10;99.90;;;;;;4194336;28;20427;-63
2023/12/22 08:55:56;;;;;;;3.60;1.40;;;6.10;99.90;;;;;;4193991;28;20133;-62
2023/12/22 08:57:57;;;;;;;7.47;3.20;;;6.20;99.90;;;;;;4194136;28;20040;-62
2023/12/22 08:59:58;;;;;;;7.30;3.10;;;6.30;99.90;;;;;;4192560;28;20113;-59
2023/12/22 09:01:59;;;;;;;5.37;3.50;;;6.40;99.90;;;;;;4193446;28;20032;-61
2023/12/22 09:04:01;;;;;;;4.17;1.40;;;6.50;99.90;;;;;;4193421;28;20037;-61
2023/12/22 09:06:02;;;;;;;6.30;2.03;;;6.30;99.90;;;;;;4192824;28;20090;-60
2023/12/22 09:08:04;;;;;;;4.43;2.03;;;6.20;99.90;;;;;;4193896;28;20098;-61
2023/12/22 09:10:06;;;;;;;5.70;2.47;;;6.20;99.90;;;;;;4193623;28;20020;-61
2023/12/22 09:12:07;;;;;;;8.90;2.53;;;6.10;99.90;;;;;;4193253;28;20459;-59
2023/12/22 09:14:11;;;;;;;6.73;1.77;;;6.10;99.90;;;;;;4192818;28;20511;-59
2023/12/22 09:16:15;;;;;;;2.97;2.23;;;6.10;99.90;;;;;;4193491;28;20491;-59
2023/12/22 09:18:16;;;;;;;6.73;2.57;;;6.10;99.90;;;;;;4193930;28;20453;-61
2023/12/22 09:20:18;;;;;;;6.60;2.17;;;6.10;99.90;;;;;;4192474;28;20118;-61
2023/12/22 09:22:19;;;;;;;8.10;1.70;;;6.10;99.90;;;;;;4191601;28;20037;-61
2023/12/22 09:24:20;;;;;;;4.33;1.40;;;6.10;99.90;;;;;;4175648;28;20041;-61
2023/12/22 09:26:22;;;;;;;9.07;1.30;;;6.10;99.90;;;;;;4191955;28;20452;-62
2023/12/22 09:28:23;;;;;;;6.17;1.00;;;6.10;99.90;;;;;;4192777;28;20044;-61
2023/12/22 09:30:24;;;;;;;5.00;1.13;;;6.00;99.90;;;;;;4192754;28;20040;-61
2023/12/22 09:32:26;;;;;;;7.03;3.43;;;6.00;99.90;;;;;;4193038;28;20097;-61
2023/12/22 09:34:27;;;;;;;6.07;3.07;;;5.90;99.90;;;;;;4192395;28;20858;-61
2023/12/22 09:36:29;;;;;;;9.93;3.30;;;5.80;99.90;;;;;;4192467;28;20040;-61
2023/12/22 09:38:30;;;;;;;7.60;3.77;;;5.80;99.90;;;;;;4192787;28;20110;-60
2023/12/22 09:40:34;;;;;;;8.13;3.00;;;5.70;99.90;;;;;;4193741;28;20037;-60
2023/12/22 09:42:40;;;;;;;5.83;2.53;;;5.70;99.90;;;;;;4191845;28;20403;-61
2023/12/22 09:44:42;;;;;;;9.57;2.60;;;5.60;99.90;;;;;;4192660;28;20041;-60
2023/12/22 09:46:44;;;;;;;5.57;2.80;;;5.60;99.90;;;;;;4193557;28;20028;-60
2023/12/22 09:48:45;;;;;;;4.17;2.40;;;5.60;99.90;;;;;;4192040;28;20037;-59
2023/12/22 09:50:47;;;;;;;8.00;3.00;;;5.50;99.90;;;;;;4192835;28;20044;-59
2023/12/22 09:52:48;;;;;;;5.87;2.50;;;5.60;99.90;;;;;;4192453;28;20036;-61
2023/12/22 09:54:50;;;;;;;7.27;2.97;;;5.70;99.90;;;;;;4191978;28;20052;-60
2023/12/22 09:56:52;;;;;;;5.30;1.90;;;5.80;99.90;;;;;;4192329;28;20102;-60
2023/12/22 09:58:55;;;;;;;4.27;2.10;;;5.80;99.90;;;;;;4189217;28;20131;-58
2023/12/22 10:00:57;;;;;;;2.90;1.50;;;5.90;99.90;;;;;;4192251;28;20036;-60
2023/12/22 10:02:58;;;;;;;3.97;2.13;;;5.90;99.90;;;;;;4193097;28;20041;-61
2023/12/22 10:04:59;;;;;;;5.97;2.20;;;6.00;99.90;;;;;;4193088;28;20074;-62
2023/12/22 10:07:04;;;;;;;7.57;1.90;;;6.10;99.90;;;;;;4191419;28;20044;-61
2023/12/22 10:09:07;;;;;;;6.67;3.03;;;6.20;99.90;;;;;;4193083;28;20050;-61
2023/12/22 10:11:09;;;;;;;3.17;1.23;;;6.20;99.90;;;;;;4193395;28;20032;-62
2023/12/22 10:13:10;;;;;;;6.33;1.70;;;6.20;99.90;;;;;;4191198;28;20044;-61
2023/12/22 10:15:12;;;;;;;9.53;3.33;;;6.20;99.90;;;;;;4192677;28;20040;-61
2023/12/22 10:17:17;;;;;;;5.17;3.10;;;6.30;99.90;;;;;;4193044;28;20054;-61
2023/12/22 10:19:20;;;;;;;5.43;1.90;;;6.40;99.90;;;;;;4192618;28;20447;-59
2023/12/22 10:21:22;;;;;;;5.47;2.10;;;6.40;99.90;;;;;;4191351;28;20040;-61
2023/12/22 10:23:23;;;;;;;6.87;1.53;;;6.40;99.90;;;;;;4192839;28;20024;-61
2023/12/22 10:25:32;;;;;;;6.33;2.13;;;6.40;99.90;;;;;;4192875;28;20082;-61
2023/12/22 10:27:36;;;;;;;4.83;1.67;;;6.30;99.90;;;;;;4191412;28;20071;-60
2023/12/22 10:29:37;;;;;;;5.60;2.03;;;6.30;99.90;;;;;;4192494;28;20028;-60
2023/12/22 10:31:40;;;;;;;3.57;1.40;;;6.30;99.90;;;;;;4192713;28;20036;-60
2023/12/22 10:33:44;;;;;;;10.37;4.33;;;6.20;99.90;;;;;;4192628;28;20033;-61